createdAt,value
2023-01-10T00:02:37.521Z,88.46
2023-01-10T00:07:39.152Z,88.08
2023-01-10T00:12:59.751Z,87.54
2023-01-10T00:18:01.459Z,87.54
2023-01-10T00:23:04.710Z,88.03
2023-01-10T00:28:06.757Z,87.69
2023-01-10T00:33:09.564Z,87.15
2023-01-10T00:38:11.229Z,87.59
2023-01-10T00:43:31.358Z,87.37
2023-01-10T00:48:32.981Z,87.14
2023-01-10T00:53:34.618Z,86.60
2023-01-10T00:58:36.231Z,86.85
2023-01-10T01:03:37.865Z,86.43
2023-01-10T01:08:39.478Z,86.73
2023-01-10T01:13:41.098Z,87.41
2023-01-10T01:18:42.719Z,87.13
2023-01-10T01:23:44.486Z,87.67
2023-01-10T01:28:46.081Z,87.28
2023-01-10T01:33:47.796Z,87.14
2023-01-10T01:38:49.434Z,88.03
2023-01-10T01:44:03.227Z,87.82
2023-01-10T01:49:09.535Z,88.06
2023-01-10T01:54:13.289Z,87.86
2023-01-10T01:59:28.611Z,88.13
2023-01-10T02:04:41.554Z,88.74
2023-01-10T02:09:53.401Z,88.37
2023-01-10T02:14:55.956Z,88.39
2023-01-10T02:20:10.739Z,88.70
2023-01-10T02:25:12.468Z,88.49
2023-01-10T02:30:51.614Z,88.62
2023-01-10T02:36:20.216Z,89.13
2023-01-10T02:41:52.024Z,93.81
2023-01-10T02:46:53.709Z,96.15
2023-01-10T02:51:56.689Z,96.92
2023-01-10T02:57:04.434Z,97.24
2023-01-10T03:02:30.179Z,96.18
2023-01-10T03:07:43.655Z,95.98
2023-01-10T03:13:01.013Z,96.13
2023-01-10T03:18:07.503Z,94.88
2023-01-10T03:23:11.035Z,95.09
2023-01-10T03:28:25.014Z,94.13
2023-01-10T03:33:29.657Z,94.82
2023-01-10T03:38:34.243Z,93.87
2023-01-10T03:44:03.131Z,94.07
2023-01-10T03:49:06.867Z,93.39
2023-01-10T03:54:08.911Z,93.44
2023-01-10T03:59:10.613Z,93.58
2023-01-10T04:04:12.339Z,92.99
2023-01-10T04:09:14.262Z,92.28
2023-01-10T04:14:15.866Z,92.45
2023-01-10T04:19:17.471Z,91.70
2023-01-10T04:24:19.095Z,92.08
2023-01-10T04:29:20.688Z,92.30
2023-01-10T04:34:22.463Z,92.40
2023-01-10T04:39:24.317Z,93.00
2023-01-10T04:44:25.943Z,92.46
2023-01-10T04:49:27.622Z,92.72
2023-01-10T04:54:29.329Z,92.65
2023-01-10T04:59:31.302Z,92.73
2023-01-10T05:04:32.909Z,92.69
2023-01-10T05:09:34.517Z,92.90
2023-01-10T05:14:36.118Z,93.15
2023-01-10T05:19:37.724Z,93.00
2023-01-10T05:24:39.329Z,92.53
2023-01-10T05:29:41.005Z,92.20
2023-01-10T05:34:43.627Z,92.44
2023-01-10T05:39:45.201Z,92.52
2023-01-10T05:44:46.988Z,92.42
2023-01-10T05:49:48.602Z,92.46
2023-01-10T05:54:50.255Z,92.29
2023-01-10T05:59:52.246Z,92.73
2023-01-10T06:04:55.485Z,92.28
2023-01-10T06:09:57.101Z,92.08
2023-01-10T06:14:58.693Z,92.98
2023-01-10T06:20:00.309Z,92.20
2023-01-10T06:25:02.700Z,92.74
2023-01-10T06:30:04.831Z,93.07
2023-01-10T06:35:06.953Z,93.09
2023-01-10T06:40:09.346Z,93.00
2023-01-10T06:45:11.779Z,93.13
2023-01-10T06:50:14.294Z,92.92
2023-01-10T06:55:16.026Z,93.76
2023-01-10T07:00:18.334Z,93.09
2023-01-10T07:05:21.497Z,94.35
2023-01-10T07:10:23.092Z,94.32
2023-01-10T07:15:25.590Z,94.19
2023-01-10T07:20:27.917Z,95.04
2023-01-10T07:25:30.409Z,95.49
2023-01-10T07:30:32.144Z,96.02
2023-01-10T07:35:33.949Z,97.33
2023-01-10T07:40:35.560Z,97.38
2023-01-10T07:45:37.156Z,97.82
2023-01-10T07:50:38.932Z,97.70
2023-01-10T07:55:40.538Z,97.97
2023-01-10T08:00:42.236Z,97.21
2023-01-10T08:05:44.539Z,97.36
2023-01-10T08:10:46.149Z,96.66
2023-01-10T08:15:50.469Z,97.13
2023-01-10T08:20:53.776Z,97.36
2023-01-10T08:25:55.486Z,96.15
2023-01-10T08:30:57.476Z,95.23
2023-01-10T08:35:59.161Z,95.51
2023-01-10T08:41:00.809Z,95.72
2023-01-10T08:46:02.447Z,95.67
2023-01-10T08:51:09.105Z,95.50
2023-01-10T08:56:11.460Z,94.64
2023-01-10T09:01:14.528Z,93.62
2023-01-10T09:06:16.243Z,92.25
2023-01-10T09:11:18.147Z,91.30
2023-01-10T09:16:19.914Z,90.45
2023-01-10T09:21:21.566Z,91.23
2023-01-10T09:26:23.327Z,91.78
2023-01-10T09:31:24.965Z,94.81
2023-01-10T09:36:26.629Z,98.17
2023-01-10T09:41:43.658Z,98.13
2023-01-10T09:47:22.138Z,97.86
2023-01-10T09:52:43.435Z,97.35
2023-01-10T09:57:45.404Z,96.03
2023-01-10T10:02:52.764Z,94.76
2023-01-10T10:08:00.157Z,92.99
2023-01-10T10:13:01.705Z,92.69
2023-01-10T10:18:16.847Z,92.40
2023-01-10T10:23:29.806Z,92.33
2023-01-10T10:28:54.935Z,91.48
2023-01-10T10:34:06.118Z,89.81
2023-01-10T10:39:14.863Z,89.56
2023-01-10T10:44:30.941Z,85.85
2023-01-10T10:49:42.461Z,77.21
2023-01-10T10:54:45.829Z,81.39
2023-01-10T10:59:49.603Z,85.14
2023-01-10T11:04:55.484Z,86.42
2023-01-10T11:10:08.336Z,87.54
2023-01-10T11:15:10.774Z,87.55
2023-01-10T11:20:17.131Z,86.77
2023-01-10T11:25:21.867Z,87.75
2023-01-10T11:30:29.188Z,85.88
2023-01-10T11:35:36.409Z,84.58
2023-01-10T11:40:39.437Z,84.65
2023-01-10T11:45:43.003Z,82.95
2023-01-10T11:50:50.496Z,83.04
2023-01-10T11:55:52.173Z,82.13
2023-01-10T12:00:53.811Z,81.07
2023-01-10T12:06:00.542Z,81.82
2023-01-10T12:11:22.234Z,80.61
2023-01-10T12:16:29.627Z,80.99
2023-01-10T12:21:41.448Z,81.49
2023-01-10T12:26:45.382Z,81.61
2023-01-10T12:31:47.002Z,81.29
2023-01-10T12:37:23.642Z,80.40
2023-01-10T12:43:00.351Z,72.35
2023-01-10T12:48:26.831Z,67.09
2023-01-10T12:53:39.928Z,72.22
2023-01-10T12:58:46.033Z,76.28
2023-01-10T13:03:55.657Z,77.15
2023-01-10T13:09:00.154Z,78.23
2023-01-10T13:14:05.161Z,78.38
2023-01-10T13:19:09.830Z,77.88
2023-01-10T13:24:22.320Z,76.88
2023-01-10T13:29:26.765Z,76.92
2023-01-10T13:34:34.728Z,76.39
2023-01-10T13:39:38.657Z,76.67
2023-01-10T13:45:01.966Z,76.76
2023-01-10T13:50:33.952Z,76.69
2023-01-10T13:55:38.542Z,74.91
2023-01-10T14:00:58.631Z,74.61
2023-01-10T14:06:01.229Z,73.58
2023-01-10T14:11:13.672Z,75.31
2023-01-10T14:16:36.432Z,76.27
2023-01-10T14:21:45.496Z,76.43
2023-01-10T14:26:48.088Z,76.12
2023-01-10T14:31:53.067Z,76.13
2023-01-10T14:37:09.490Z,76.31
2023-01-10T14:42:17.749Z,75.87
2023-01-10T14:47:31.611Z,75.79
2023-01-10T14:52:33.842Z,76.24
2023-01-10T14:57:35.520Z,76.91
2023-01-10T15:02:39.876Z,76.98
2023-01-10T15:07:41.848Z,77.65
2023-01-10T15:12:45.025Z,78.18
2023-01-10T15:17:47.501Z,78.68
2023-01-10T15:22:55.558Z,78.67
2023-01-10T15:27:58.790Z,77.44
2023-01-10T15:33:07.556Z,78.18
2023-01-10T15:38:14.639Z,78.15
2023-01-10T15:43:30.114Z,78.41
2023-01-10T15:48:41.169Z,78.73
2023-01-10T15:54:03.733Z,79.11
2023-01-10T15:59:21.673Z,79.41
2023-01-10T16:04:23.365Z,78.72
2023-01-10T16:09:25.035Z,79.98
2023-01-10T16:14:26.713Z,79.63
2023-01-10T16:19:29.145Z,79.91
2023-01-10T16:24:33.835Z,80.01
2023-01-10T16:29:35.510Z,79.68
2023-01-10T16:34:37.117Z,79.31
2023-01-10T16:39:38.737Z,79.73
2023-01-10T16:44:41.670Z,79.76
2023-01-10T16:49:43.445Z,79.75
2023-01-10T16:54:45.038Z,80.86
2023-01-10T16:59:46.682Z,80.85
2023-01-10T17:04:48.774Z,81.76
2023-01-10T17:09:50.396Z,82.44
2023-01-10T17:14:53.255Z,81.88
2023-01-10T17:19:54.927Z,81.45
2023-01-10T17:24:56.601Z,81.74
2023-01-10T17:29:58.186Z,82.29
2023-01-10T17:35:00.002Z,82.57
2023-01-10T17:40:01.909Z,81.14
2023-01-10T17:45:03.789Z,81.68
2023-01-10T17:50:05.623Z,80.68
2023-01-10T17:55:07.822Z,80.62
2023-01-10T18:00:10.156Z,80.73
2023-01-10T18:05:12.056Z,81.00
2023-01-10T18:10:13.643Z,81.39
2023-01-10T18:15:15.457Z,82.11
2023-01-10T18:20:17.348Z,83.04
2023-01-10T18:25:19.483Z,82.71
2023-01-10T18:30:24.426Z,84.41
2023-01-10T18:35:26.916Z,84.36
2023-01-10T18:40:28.572Z,84.48
2023-01-10T18:45:32.992Z,84.80
2023-01-10T18:50:34.591Z,85.15
2023-01-10T18:55:36.269Z,85.00
2023-01-10T19:00:37.876Z,86.59
2023-01-10T19:05:39.515Z,85.78
2023-01-10T19:11:11.458Z,85.70
2023-01-10T19:16:18.057Z,84.86
2023-01-10T19:21:21.174Z,84.78
2023-01-10T19:26:24.105Z,84.49
2023-01-10T19:31:28.159Z,82.44
2023-01-10T19:36:34.668Z,83.11
2023-01-10T19:41:37.949Z,83.87
2023-01-10T19:46:40.762Z,82.54
2023-01-10T19:51:45.758Z,83.29
2023-01-10T19:56:47.702Z,81.84
2023-01-10T20:01:49.489Z,82.57
2023-01-10T20:06:51.277Z,84.81
2023-01-10T20:11:53.282Z,85.71
2023-01-10T20:16:54.931Z,86.14
2023-01-10T20:21:56.545Z,85.00
2023-01-10T20:26:59.176Z,86.55
2023-01-10T20:32:02.362Z,85.07
2023-01-10T20:37:04.049Z,86.07
2023-01-10T20:42:05.682Z,86.47
2023-01-10T20:47:07.339Z,88.58
2023-01-10T20:52:09.975Z,91.10
2023-01-10T20:57:11.573Z,91.52
2023-01-10T21:02:13.232Z,92.95
2023-01-10T21:07:14.868Z,94.37
2023-01-10T21:12:23.038Z,94.34
2023-01-10T21:17:25.482Z,94.56
2023-01-10T21:22:28.173Z,95.04
2023-01-10T21:27:31.353Z,95.63
2023-01-10T21:32:33.223Z,97.25
2023-01-10T21:37:34.833Z,96.52
2023-01-10T21:42:42.721Z,96.68
2023-01-10T21:47:44.844Z,97.10
2023-01-10T21:52:46.540Z,97.88
2023-01-10T21:57:48.164Z,97.81
2023-01-10T22:02:49.933Z,98.20
2023-01-10T22:07:52.350Z,98.42
2023-01-10T22:12:53.932Z,98.26
2023-01-10T22:17:55.551Z,99.94
2023-01-10T22:22:58.148Z,99.85
2023-01-10T22:27:59.741Z,100.00
2023-01-10T22:33:01.774Z,100.00
2023-01-10T22:38:03.376Z,100.00
2023-01-10T22:43:05.162Z,100.00
2023-01-10T22:48:06.856Z,100.00
2023-01-10T22:53:08.453Z,100.00
2023-01-10T22:58:10.181Z,100.00
2023-01-10T23:03:11.784Z,100.00
2023-01-10T23:08:13.388Z,100.00
2023-01-10T23:13:16.010Z,100.00
2023-01-10T23:18:18.003Z,100.00
2023-01-10T23:23:19.736Z,100.00
2023-01-10T23:28:21.377Z,100.00
2023-01-10T23:33:23.196Z,100.00
2023-01-10T23:38:25.330Z,100.00
2023-01-10T23:43:27.056Z,100.00
2023-01-10T23:48:29.776Z,100.00
2023-01-10T23:53:31.494Z,100.00
2023-01-10T23:58:33.135Z,100.00
